Terminal Aerodrome Forecast
Issued by NWS Cleveland, OH

Home | Current Version | Previous Version | Text Only | Print | Product List | Glossary On
Versions: 1 2 3 4 5 6 7 8 9 10 11 12 13 14 15 16 17 18 19 20 21
324
FTUS41 KCLE 250540
TAFTOL
TAF
KTOL 250540Z 2506/2606 12015KT P6SM VCSH OVC004
     FM250800 20015G25KT P6SM OVC009 WS020/22055KT
     FM251100 24020G36KT P6SM BKN015
     FM251400 25020G30KT P6SM SCT050=

USA.gov is the U.S. government's official web portal to all federal, state and local government web resources and services.